createdAt,value
2022-12-23T00:00:06.545Z,18.95
2022-12-23T00:02:30.320Z,19.77
2022-12-23T00:04:52.792Z,19.13
2022-12-23T00:07:15.148Z,20.17
2022-12-23T00:09:37.603Z,18.57
2022-12-23T00:12:18.710Z,19.10
2022-12-23T00:14:59.457Z,18.58
2022-12-23T00:17:23.212Z,17.35
2022-12-23T00:19:45.866Z,18.65
2022-12-23T00:22:08.212Z,18.73
2022-12-23T00:24:30.560Z,17.93
2022-12-23T00:26:52.894Z,17.23
2022-12-23T00:29:15.233Z,18.33
2022-12-23T00:31:37.608Z,18.08
2022-12-23T00:34:00.094Z,17.77
2022-12-23T00:36:27.755Z,18.17
2022-12-23T00:39:08.938Z,15.85
2022-12-23T00:41:49.798Z,18.05
2022-12-23T00:44:12.226Z,17.52
2022-12-23T00:46:34.597Z,16.85
2022-12-23T00:49:15.530Z,16.83
2022-12-23T00:51:38.058Z,16.52
2022-12-23T00:54:01.085Z,16.95
2022-12-23T00:56:23.454Z,18.58
2022-12-23T00:58:45.860Z,18.87
2022-12-23T01:01:26.913Z,18.07
2022-12-23T01:04:07.974Z,18.05
2022-12-23T01:06:30.331Z,17.48
2022-12-23T01:08:52.674Z,17.70
2022-12-23T01:11:15.016Z,17.63
2022-12-23T01:13:37.655Z,17.77
2022-12-23T01:16:16.939Z,18.35
2022-12-23T01:18:40.980Z,18.80
2022-12-23T01:21:08.567Z,16.45
2022-12-23T01:23:31.114Z,17.15
2022-12-23T01:26:01.642Z,17.58
2022-12-23T01:28:24.008Z,17.55
2022-12-23T01:30:46.372Z,17.50
2022-12-23T01:33:08.708Z,16.97
2022-12-23T01:35:31.133Z,16.43
2022-12-23T01:37:53.466Z,16.58
2022-12-23T01:40:15.883Z,16.43
2022-12-23T01:42:44.471Z,16.07
2022-12-23T01:45:31.112Z,15.90
2022-12-23T01:48:03.803Z,15.10
2022-12-23T01:50:27.255Z,15.93
2022-12-23T01:53:08.604Z,16.23
2022-12-23T01:55:33.268Z,15.43
2022-12-23T01:57:56.975Z,15.88
2022-12-23T02:00:38.130Z,15.90
2022-12-23T02:03:19.202Z,15.60
2022-12-23T02:05:44.339Z,15.48
2022-12-23T02:08:25.318Z,15.52
2022-12-23T02:11:06.458Z,15.52
2022-12-23T02:14:17.513Z,15.60
2022-12-23T02:16:47.509Z,16.15
2022-12-23T02:19:23.402Z,15.13
2022-12-23T02:21:57.340Z,16.00
2022-12-23T02:24:47.142Z,15.52
2022-12-23T02:27:12.264Z,15.10
2022-12-23T02:29:49.565Z,15.60
2022-12-23T02:32:31.297Z,15.38
2022-12-23T02:35:05.040Z,16.20
2022-12-23T02:38:12.162Z,16.27
2022-12-23T02:40:57.715Z,15.35
2022-12-23T02:43:53.384Z,15.73
2022-12-23T02:46:22.766Z,16.02
2022-12-23T02:48:57.969Z,16.90
2022-12-23T02:51:21.897Z,16.83
2022-12-23T02:53:52.198Z,16.25
2022-12-23T02:56:15.214Z,17.17
2022-12-23T02:58:54.791Z,15.90
2022-12-23T03:01:17.200Z,16.50
2022-12-23T03:03:39.591Z,15.43
2022-12-23T03:06:02.516Z,15.47
2022-12-23T03:08:29.438Z,15.93
2022-12-23T03:11:04.813Z,15.90
2022-12-23T03:13:55.127Z,14.77
2022-12-23T03:16:35.269Z,14.38
2022-12-23T03:19:11.659Z,15.60
2022-12-23T03:22:08.489Z,15.63
2022-12-23T03:24:54.071Z,13.88
2022-12-23T03:27:27.092Z,14.00
2022-12-23T03:30:09.710Z,14.63
2022-12-23T03:33:05.857Z,16.02
2022-12-23T03:35:35.564Z,14.43
2022-12-23T03:37:57.910Z,14.30
2022-12-23T03:40:41.768Z,15.27
2022-12-23T03:45:47.448Z,14.80
2022-12-23T03:48:31.509Z,14.07
2022-12-23T03:50:57.391Z,14.55
2022-12-23T03:53:27.170Z,15.10
2022-12-23T03:55:54.370Z,13.68
2022-12-23T03:58:31.597Z,14.88
2022-12-23T04:01:18.497Z,15.35
2022-12-23T04:03:56.165Z,14.65
2022-12-23T04:06:18.587Z,14.23
2022-12-23T04:08:41.001Z,14.63
2022-12-23T04:11:03.532Z,14.82
2022-12-23T04:13:27.806Z,15.35
2022-12-23T04:15:50.174Z,14.57
2022-12-23T04:18:12.655Z,14.50
2022-12-23T04:20:35.053Z,13.63
2022-12-23T04:22:57.425Z,14.40
2022-12-23T04:25:19.949Z,15.47
2022-12-23T04:27:42.467Z,15.30
2022-12-23T04:30:06.400Z,15.00
2022-12-23T04:32:28.740Z,14.93
2022-12-23T04:34:51.099Z,14.00
2022-12-23T04:37:13.493Z,15.80
2022-12-23T04:39:35.842Z,16.00
2022-12-23T04:41:58.181Z,15.80
2022-12-23T04:44:20.553Z,16.60
2022-12-23T04:46:42.986Z,17.57
2022-12-23T04:49:05.427Z,17.47
2022-12-23T04:51:27.814Z,16.98
2022-12-23T04:53:50.253Z,17.30
2022-12-23T04:56:12.618Z,17.42
2022-12-23T04:58:34.979Z,17.40
2022-12-23T05:01:08.805Z,18.67
2022-12-23T05:03:31.332Z,19.58
2022-12-23T05:05:53.853Z,20.05
2022-12-23T05:08:16.210Z,18.63
2022-12-23T05:10:38.639Z,19.27
2022-12-23T05:13:01.011Z,19.77
2022-12-23T05:15:23.364Z,21.73
2022-12-23T05:17:45.712Z,20.47
2022-12-23T05:20:09.135Z,22.37
2022-12-23T05:22:31.507Z,22.92
2022-12-23T05:24:53.917Z,21.65
2022-12-23T05:27:16.328Z,21.10
2022-12-23T05:29:38.693Z,23.38
2022-12-23T05:32:01.155Z,23.53
2022-12-23T05:34:23.562Z,24.30
2022-12-23T05:36:45.901Z,24.33
2022-12-23T05:39:09.631Z,24.30
2022-12-23T05:41:32.033Z,24.02
2022-12-23T05:43:54.422Z,25.92
2022-12-23T05:46:19.915Z,23.17
2022-12-23T05:48:46.835Z,24.55
2022-12-23T05:51:09.218Z,23.50
2022-12-23T05:53:31.725Z,25.90
2022-12-23T05:55:54.106Z,25.30
2022-12-23T05:58:16.670Z,29.67
2022-12-23T06:00:39.148Z,25.38
2022-12-23T06:03:01.645Z,25.63
2022-12-23T06:05:24.065Z,28.05
2022-12-23T06:07:46.459Z,27.33
2022-12-23T06:10:10.036Z,26.42
2022-12-23T06:12:32.372Z,27.13
2022-12-23T06:14:54.736Z,26.40
2022-12-23T06:17:17.089Z,26.97
2022-12-23T06:19:39.455Z,26.25
2022-12-23T06:22:01.833Z,27.67
2022-12-23T06:24:24.163Z,27.53
2022-12-23T06:26:46.520Z,28.17
2022-12-23T06:29:08.858Z,28.73
2022-12-23T06:31:31.249Z,27.57
2022-12-23T06:33:53.598Z,28.90
2022-12-23T06:36:15.928Z,30.10
2022-12-23T06:38:18.200Z,30.00
2022-12-23T06:40:20.288Z,31.25
2022-12-23T06:42:23.673Z,32.50
2022-12-23T06:44:25.741Z,30.52
2022-12-23T06:46:46.364Z,32.72
2022-12-23T06:49:12.838Z,31.27
2022-12-23T06:51:36.007Z,33.92
2022-12-23T06:54:00.073Z,32.38
2022-12-23T06:56:22.463Z,32.95
2022-12-23T06:58:44.820Z,32.33
2022-12-23T07:01:07.208Z,31.83
2022-12-23T07:03:29.684Z,31.40
2022-12-23T07:05:52.467Z,32.97
2022-12-23T07:08:14.825Z,33.17
2022-12-23T07:10:37.186Z,33.57
2022-12-23T07:12:59.541Z,31.80
2022-12-23T07:15:21.910Z,32.50
2022-12-23T07:17:44.229Z,33.60
2022-12-23T07:20:07.779Z,33.57
2022-12-23T07:22:30.153Z,33.17
2022-12-23T07:24:52.577Z,32.85
2022-12-23T07:27:14.957Z,34.75
2022-12-23T07:29:37.288Z,33.97
2022-12-23T07:32:00.911Z,33.67
2022-12-23T07:34:23.317Z,34.03
2022-12-23T07:36:45.680Z,34.47
2022-12-23T07:39:08.114Z,33.27
2022-12-23T07:41:30.544Z,34.10
2022-12-23T07:43:52.882Z,34.08
2022-12-23T07:46:15.380Z,35.28
2022-12-23T07:48:37.849Z,32.83
2022-12-23T07:51:02.075Z,33.03
2022-12-23T07:53:24.455Z,30.67
2022-12-23T07:55:51.562Z,31.02
2022-12-23T07:58:17.001Z,30.92
2022-12-23T08:00:39.320Z,29.47
2022-12-23T08:03:01.783Z,29.30
2022-12-23T08:05:24.349Z,28.85
2022-12-23T08:07:46.712Z,28.65
2022-12-23T08:10:10.219Z,28.73
2022-12-23T08:12:32.868Z,27.83
2022-12-23T08:14:55.219Z,27.45
2022-12-23T08:17:17.659Z,27.33
2022-12-23T08:19:40.136Z,29.70
2022-12-23T08:22:02.498Z,27.13
2022-12-23T08:24:24.861Z,30.27
2022-12-23T08:26:47.214Z,31.40
2022-12-23T08:29:09.623Z,28.90
2022-12-23T08:31:32.187Z,29.33
2022-12-23T08:33:56.539Z,26.20
2022-12-23T08:36:27.383Z,26.15
2022-12-23T08:38:50.238Z,25.85
2022-12-23T08:41:17.953Z,25.85
2022-12-23T08:43:40.415Z,26.38
2022-12-23T08:46:03.081Z,26.60
2022-12-23T08:48:25.478Z,25.88
2022-12-23T08:50:47.850Z,25.20
2022-12-23T08:53:10.636Z,25.33
2022-12-23T08:55:46.738Z,25.88
2022-12-23T08:58:09.390Z,25.55
2022-12-23T09:00:31.723Z,26.55
2022-12-23T09:02:54.205Z,22.05
2022-12-23T09:05:16.711Z,21.88
2022-12-23T09:07:18.729Z,20.65
2022-12-23T09:09:20.798Z,21.27
2022-12-23T09:11:24.781Z,20.80
2022-12-23T09:13:34.850Z,20.75
2022-12-23T09:15:44.610Z,21.73
2022-12-23T09:17:46.837Z,23.73
2022-12-23T09:19:52.917Z,26.23
2022-12-23T09:21:55.829Z,24.60
2022-12-23T09:23:57.902Z,24.88
2022-12-23T09:26:00.906Z,21.67
2022-12-23T09:28:05.125Z,22.20
2022-12-23T09:30:08.579Z,22.33
2022-12-23T09:32:11.482Z,21.73
2022-12-23T09:34:14.169Z,21.42
2022-12-23T09:36:17.189Z,21.63
2022-12-23T09:40:21.999Z,20.00
2022-12-23T09:43:14.808Z,21.25
2022-12-23T09:45:26.764Z,22.77
2022-12-23T09:47:30.231Z,22.40
2022-12-23T09:49:32.751Z,25.15
2022-12-23T09:51:37.080Z,23.50
2022-12-23T09:54:04.139Z,23.30
2022-12-23T09:56:23.911Z,20.13
2022-12-23T09:59:08.115Z,19.70
2022-12-23T10:01:44.767Z,17.95
2022-12-23T10:04:23.476Z,21.50
2022-12-23T10:06:47.321Z,21.98
2022-12-23T10:09:09.839Z,22.80
2022-12-23T10:11:38.174Z,25.13
2022-12-23T10:14:22.321Z,24.80
2022-12-23T10:16:47.205Z,25.77
2022-12-23T10:19:29.860Z,26.25
2022-12-23T10:21:55.023Z,23.58
2022-12-23T10:24:36.732Z,25.65
2022-12-23T10:27:31.804Z,25.17
2022-12-23T10:29:54.171Z,23.30
2022-12-23T10:32:59.767Z,23.60
2022-12-23T10:36:06.882Z,24.85
2022-12-23T10:39:06.060Z,23.33
2022-12-23T10:41:51.100Z,25.90
2022-12-23T10:44:49.742Z,23.42
2022-12-23T10:47:14.731Z,23.65
2022-12-23T10:50:19.502Z,23.02
2022-12-23T10:52:42.924Z,23.98
2022-12-23T10:55:05.800Z,23.65
2022-12-23T10:57:28.160Z,24.00
2022-12-23T10:59:50.597Z,26.23
2022-12-23T11:02:13.094Z,24.58
2022-12-23T11:04:37.316Z,26.23
2022-12-23T11:07:26.203Z,24.73
2022-12-23T11:09:48.418Z,23.80
2022-12-23T11:12:12.027Z,23.17
2022-12-23T11:14:40.248Z,21.45
2022-12-23T11:17:04.527Z,21.50
2022-12-23T11:21:59.730Z,20.30
2022-12-23T11:24:22.935Z,21.63
2022-12-23T11:27:06.941Z,27.30
2022-12-23T11:29:35.364Z,23.25
2022-12-23T11:31:57.829Z,21.55
2022-12-23T11:34:21.910Z,19.33
2022-12-23T11:36:44.365Z,18.02
2022-12-23T11:39:21.986Z,17.52
2022-12-23T11:41:48.322Z,18.30
2022-12-23T11:44:36.456Z,16.60
2022-12-23T11:47:17.502Z,17.60
2022-12-23T11:49:46.836Z,18.05
2022-12-23T11:52:09.146Z,18.52
2022-12-23T11:54:32.271Z,17.07
2022-12-23T11:56:54.800Z,17.58
2022-12-23T11:59:39.620Z,18.58
2022-12-23T12:02:26.926Z,18.25
2022-12-23T12:04:59.301Z,18.67
2022-12-23T12:07:21.683Z,19.75
2022-12-23T12:09:47.068Z,18.47
2022-12-23T12:12:19.458Z,18.42
2022-12-23T12:14:48.272Z,18.02
2022-12-23T12:17:40.483Z,18.13
2022-12-23T12:20:33.326Z,17.70
2022-12-23T12:22:58.854Z,18.92
2022-12-23T12:25:23.195Z,18.60
2022-12-23T12:28:00.297Z,17.23
2022-12-23T12:30:23.059Z,17.85
2022-12-23T12:33:00.920Z,16.80
2022-12-23T12:35:53.654Z,18.08
2022-12-23T12:38:32.560Z,17.15
2022-12-23T12:41:22.481Z,17.75
2022-12-23T12:43:56.425Z,19.00
2022-12-23T12:46:34.735Z,18.80
2022-12-23T12:49:10.874Z,19.20
2022-12-23T12:51:54.432Z,20.48
2022-12-23T12:54:27.738Z,20.55
2022-12-23T12:56:57.552Z,20.95
2022-12-23T12:59:28.645Z,20.73
2022-12-23T13:02:25.012Z,22.25
2022-12-23T13:05:14.907Z,21.38
2022-12-23T13:07:46.359Z,22.27
2022-12-23T13:11:10.338Z,21.30
2022-12-23T13:13:39.735Z,19.50
2022-12-23T13:16:07.740Z,21.20
2022-12-23T13:19:14.503Z,20.05
2022-12-23T13:22:09.654Z,19.75
2022-12-23T13:24:49.812Z,18.15
2022-12-23T13:27:39.618Z,17.48
2022-12-23T13:30:18.038Z,19.05
2022-12-23T13:33:10.861Z,18.88
2022-12-23T13:35:50.992Z,19.85
2022-12-23T13:38:39.303Z,19.30
2022-12-23T13:41:20.572Z,19.48
2022-12-23T13:43:46.677Z,19.63
2022-12-23T13:46:18.155Z,19.92
2022-12-23T13:48:55.289Z,21.15
2022-12-23T13:51:37.659Z,20.77
2022-12-23T13:54:20.868Z,22.38
2022-12-23T13:57:08.534Z,21.02
2022-12-23T13:59:42.809Z,22.48
2022-12-23T14:02:37.231Z,22.38
2022-12-23T14:05:00.067Z,22.77
2022-12-23T14:07:22.575Z,22.58
2022-12-23T14:09:44.937Z,25.02
2022-12-23T14:12:28.514Z,24.17
2022-12-23T14:15:25.415Z,24.50
2022-12-23T14:18:27.743Z,23.83
2022-12-23T14:20:52.091Z,24.40
2022-12-23T14:23:24.437Z,23.60
2022-12-23T14:25:32.649Z,24.83
2022-12-23T14:27:55.995Z,22.10
2022-12-23T14:30:17.449Z,24.13
2022-12-23T14:32:34.471Z,25.73
2022-12-23T14:34:39.302Z,24.27
2022-12-23T14:36:42.389Z,25.15
2022-12-23T14:39:12.251Z,25.73
2022-12-23T14:41:48.016Z,22.42
2022-12-23T14:43:55.891Z,23.50
2022-12-23T14:46:05.028Z,24.83
2022-12-23T14:48:44.623Z,24.17
2022-12-23T14:51:10.362Z,23.35
2022-12-23T14:53:26.939Z,24.67
2022-12-23T14:55:32.606Z,24.52
2022-12-23T14:57:35.183Z,24.77
2022-12-23T15:00:02.406Z,24.15
2022-12-23T15:02:29.026Z,24.83
2022-12-23T15:04:50.983Z,25.63
2022-12-23T15:06:54.231Z,25.50
2022-12-23T15:08:56.913Z,26.42
2022-12-23T15:11:00.062Z,26.40
2022-12-23T15:13:03.221Z,26.30
2022-12-23T15:17:34.996Z,26.27
2022-12-23T15:19:37.350Z,26.30
2022-12-23T15:21:40.064Z,25.48
2022-12-23T15:23:50.603Z,25.67
2022-12-23T15:26:11.184Z,25.77
2022-12-23T15:28:38.736Z,25.33
2022-12-23T15:31:02.071Z,27.08
2022-12-23T15:34:01.627Z,26.83
2022-12-23T15:36:09.882Z,27.58
2022-12-23T15:38:36.185Z,27.55
2022-12-23T15:41:13.861Z,27.73
2022-12-23T15:43:41.478Z,29.58
2022-12-23T15:46:31.604Z,27.30
2022-12-23T15:48:54.014Z,26.80
2022-12-23T15:52:05.177Z,27.77
2022-12-23T15:54:30.900Z,29.25
2022-12-23T15:56:53.946Z,29.35
2022-12-23T15:59:24.108Z,28.17
2022-12-23T16:01:46.560Z,29.17
2022-12-23T16:04:09.140Z,30.42
2022-12-23T16:06:33.955Z,29.95
2022-12-23T16:09:03.180Z,28.98
2022-12-23T16:11:59.297Z,28.95
2022-12-23T16:14:34.890Z,28.23
2022-12-23T16:17:09.499Z,30.00
2022-12-23T16:20:24.268Z,30.00
2022-12-23T16:22:49.185Z,32.13
2022-12-23T16:25:17.856Z,29.15
2022-12-23T16:27:47.859Z,30.42
2022-12-23T16:30:10.698Z,32.67
2022-12-23T16:32:33.098Z,31.23
2022-12-23T16:34:55.524Z,31.83
2022-12-23T16:37:17.942Z,32.63
2022-12-23T16:39:41.221Z,32.57
2022-12-23T16:42:04.495Z,34.42
2022-12-23T16:44:26.835Z,34.63
2022-12-23T16:46:49.853Z,32.60
2022-12-23T16:49:19.098Z,33.72
2022-12-23T16:51:41.553Z,33.35
2022-12-23T16:54:04.066Z,35.03
2022-12-23T16:56:35.958Z,35.63
2022-12-23T16:58:58.325Z,33.97
2022-12-23T17:01:30.033Z,34.27
2022-12-23T17:03:52.607Z,34.47
2022-12-23T17:06:15.494Z,33.47
2022-12-23T17:08:37.840Z,33.88
2022-12-23T17:11:00.222Z,32.47
2022-12-23T17:13:22.588Z,34.70
2022-12-23T17:15:45.167Z,33.47
2022-12-23T17:18:16.647Z,35.03
2022-12-23T17:20:39.052Z,33.70
2022-12-23T17:23:01.412Z,34.95
2022-12-23T17:25:26.744Z,32.90
2022-12-23T17:27:50.230Z,33.45
2022-12-23T17:30:19.508Z,31.77
2022-12-23T17:32:42.057Z,32.22
2022-12-23T17:35:04.826Z,33.10
2022-12-23T17:37:28.435Z,32.67
2022-12-23T17:39:50.923Z,32.15
2022-12-23T17:42:25.761Z,30.45
2022-12-23T17:44:48.791Z,32.20
2022-12-23T17:47:17.733Z,32.38
2022-12-23T17:49:40.098Z,30.90
2022-12-23T17:52:03.447Z,30.42
2022-12-23T17:56:48.089Z,32.67
2022-12-23T17:59:10.755Z,32.95
2022-12-23T18:01:33.165Z,36.20
2022-12-23T18:03:56.672Z,33.10
2022-12-23T18:06:21.064Z,33.53
2022-12-23T18:08:43.501Z,34.35
2022-12-23T18:11:06.435Z,33.75
2022-12-23T18:13:28.796Z,33.63
2022-12-23T18:15:51.223Z,35.27
2022-12-23T18:18:28.552Z,33.65
2022-12-23T18:20:55.096Z,32.75
2022-12-23T18:23:29.288Z,34.08
2022-12-23T18:25:51.783Z,34.70
2022-12-23T18:28:14.139Z,36.05
2022-12-23T18:30:36.536Z,32.83
2022-12-23T18:32:58.922Z,32.38
2022-12-23T18:35:31.078Z,34.17
2022-12-23T18:37:53.643Z,35.13
2022-12-23T18:40:16.106Z,34.03
2022-12-23T18:42:38.486Z,35.70
2022-12-23T18:45:00.828Z,35.00
2022-12-23T18:47:23.192Z,34.35
2022-12-23T18:49:45.567Z,33.30
2022-12-23T18:52:12.455Z,34.03
2022-12-23T18:54:35.253Z,35.55
2022-12-23T18:57:01.231Z,33.63
2022-12-23T18:59:29.566Z,32.75
2022-12-23T19:01:52.570Z,33.17
2022-12-23T19:04:15.017Z,35.85
2022-12-23T19:06:38.840Z,33.33
2022-12-23T19:09:01.343Z,33.42
2022-12-23T19:11:23.738Z,31.98
2022-12-23T19:13:46.236Z,35.08
2022-12-23T19:16:11.657Z,33.22
2022-12-23T19:18:34.032Z,35.58
2022-12-23T19:20:56.405Z,35.53
2022-12-23T19:23:18.835Z,36.23
2022-12-23T19:25:43.492Z,35.75
2022-12-23T19:28:07.711Z,36.33
2022-12-23T19:30:30.366Z,36.13
2022-12-23T19:32:54.043Z,35.60
2022-12-23T19:35:16.473Z,36.22
2022-12-23T19:37:38.841Z,33.60
2022-12-23T19:40:01.198Z,33.78
2022-12-23T19:42:03.386Z,34.70
2022-12-23T19:44:05.491Z,34.95
2022-12-23T19:46:09.256Z,34.00
2022-12-23T19:48:11.420Z,33.42
2022-12-23T19:50:13.510Z,35.83
2022-12-23T19:52:15.638Z,33.67
2022-12-23T19:54:18.404Z,34.88
2022-12-23T19:56:25.120Z,33.83
2022-12-23T19:58:28.151Z,35.17
2022-12-23T20:00:30.194Z,33.50
2022-12-23T20:02:32.324Z,36.15
2022-12-23T20:04:35.218Z,35.10
2022-12-23T20:06:38.617Z,34.15
2022-12-23T20:08:41.097Z,34.95
2022-12-23T20:10:44.918Z,36.63
2022-12-23T20:12:47.718Z,36.22
2022-12-23T20:14:49.850Z,36.65
2022-12-23T20:16:52.861Z,36.90
2022-12-23T20:18:55.372Z,36.05
2022-12-23T20:20:59.638Z,35.78
2022-12-23T20:23:01.904Z,37.08
2022-12-23T20:25:04.816Z,36.88
2022-12-23T20:27:11.326Z,37.97
2022-12-23T20:29:13.801Z,36.90
2022-12-23T20:31:37.537Z,35.53
2022-12-23T20:33:39.988Z,37.38
2022-12-23T20:35:42.195Z,35.92
2022-12-23T20:37:45.293Z,43.58
2022-12-23T20:39:48.305Z,37.75
2022-12-23T20:44:31.845Z,38.40
2022-12-23T20:46:17.835Z,37.35
2022-12-23T20:48:21.807Z,37.20
2022-12-23T20:50:24.548Z,38.08
2022-12-23T20:52:27.384Z,37.10
2022-12-23T20:54:33.662Z,37.65
2022-12-23T20:56:37.133Z,37.53
2022-12-23T20:58:55.071Z,36.20
2022-12-23T21:01:07.632Z,37.05
2022-12-23T21:03:10.753Z,37.75
2022-12-23T21:05:12.983Z,39.90
2022-12-23T21:07:15.843Z,38.33
2022-12-23T21:09:18.549Z,39.25
2022-12-23T21:11:22.338Z,37.78
2022-12-23T21:13:25.161Z,36.65
2022-12-23T21:15:27.474Z,37.15
2022-12-23T21:17:31.271Z,34.30
2022-12-23T21:19:34.975Z,35.47
2022-12-23T21:21:37.126Z,37.17
2022-12-23T21:23:40.817Z,35.55
2022-12-23T21:25:42.902Z,34.22
2022-12-23T21:27:45.016Z,34.83
2022-12-23T21:29:47.091Z,35.13
2022-12-23T21:31:49.225Z,36.45
2022-12-23T21:33:51.477Z,33.85
2022-12-23T21:35:54.274Z,34.85
2022-12-23T21:37:56.396Z,37.25
2022-12-23T21:39:58.492Z,40.83
2022-12-23T21:42:00.586Z,40.20
2022-12-23T21:44:02.858Z,38.08
2022-12-23T21:46:08.216Z,37.97
2022-12-23T21:48:10.428Z,39.22
2022-12-23T21:50:12.584Z,42.72
2022-12-23T21:52:14.767Z,43.15
2022-12-23T21:54:16.842Z,41.97
2022-12-23T21:56:25.071Z,47.78
2022-12-23T21:58:27.089Z,46.75
2022-12-23T22:00:29.118Z,45.38
2022-12-23T22:02:31.365Z,46.30
2022-12-23T22:04:33.459Z,49.42
2022-12-23T22:06:38.284Z,48.47
2022-12-23T22:08:40.491Z,48.15
2022-12-23T22:10:42.533Z,45.75
2022-12-23T22:12:44.576Z,43.35
2022-12-23T22:14:46.619Z,43.58
2022-12-23T22:16:48.710Z,41.80
2022-12-23T22:18:51.234Z,41.70
2022-12-23T22:20:53.295Z,41.67
2022-12-23T22:22:55.402Z,39.40
2022-12-23T22:24:57.475Z,38.45
2022-12-23T22:26:59.535Z,36.67
2022-12-23T22:29:04.879Z,36.85
2022-12-23T22:31:21.008Z,34.75
2022-12-23T22:33:23.098Z,32.95
2022-12-23T22:35:27.940Z,31.60
2022-12-23T22:37:29.946Z,31.52
2022-12-23T22:39:31.949Z,29.95
2022-12-23T22:41:34.495Z,28.90
2022-12-23T22:43:37.075Z,28.17
2022-12-23T22:45:39.157Z,27.85
2022-12-23T22:47:41.317Z,25.30
2022-12-23T22:49:43.370Z,26.58
2022-12-23T22:51:45.696Z,26.17
2022-12-23T22:53:48.127Z,26.35
2022-12-23T22:55:58.334Z,24.85
2022-12-23T22:58:00.361Z,25.25
2022-12-23T23:00:07.808Z,26.20
2022-12-23T23:02:13.828Z,27.15
2022-12-23T23:04:16.674Z,27.73
2022-12-23T23:06:18.919Z,26.50
2022-12-23T23:08:21.025Z,26.85
2022-12-23T23:10:23.386Z,26.63
2022-12-23T23:14:48.897Z,27.42
2022-12-23T23:16:51.921Z,27.65
2022-12-23T23:18:55.055Z,25.13
2022-12-23T23:20:57.574Z,27.13
2022-12-23T23:23:00.057Z,26.88
2022-12-23T23:25:02.918Z,26.75
2022-12-23T23:29:09.543Z,28.42
2022-12-23T23:33:34.451Z,27.77
2022-12-23T23:35:36.990Z,29.17
2022-12-23T23:37:39.361Z,28.92
2022-12-23T23:39:42.180Z,27.90
2022-12-23T23:43:47.312Z,30.05
2022-12-23T23:45:50.214Z,26.95
2022-12-23T23:47:52.649Z,29.75
2022-12-23T23:49:55.338Z,29.17
2022-12-23T23:51:57.930Z,29.30
2022-12-23T23:54:00.441Z,29.63
2022-12-23T23:56:05.379Z,31.38
2022-12-23T23:58:08.276Z,30.85
